sensor_id;sensor_type;location;lat;lon;timestamp;P1;durP1;ratioP1;P2;durP2;ratioP2
77701;SDS011;66868;42.708;23.404;2023-03-01T00:00:14;2.80;;;2.60;;
77701;SDS011;66868;42.708;23.404;2023-03-01T00:02:39;2.58;;;2.47;;
77701;SDS011;66868;42.708;23.404;2023-03-01T00:05:05;2.90;;;2.70;;
77701;SDS011;66868;42.708;23.404;2023-03-01T00:07:32;3.08;;;2.88;;
77701;SDS011;66868;42.708;23.404;2023-03-01T00:09:57;2.58;;;2.40;;
77701;SDS011;66868;42.708;23.404;2023-03-01T00:12:23;2.60;;;2.50;;
77701;SDS011;66868;42.708;23.404;2023-03-01T00:14:48;2.67;;;2.58;;
77701;SDS011;66868;42.708;23.404;2023-03-01T00:17:14;1.83;;;1.83;;
77701;SDS011;66868;42.708;23.404;2023-03-01T00:19:39;2.20;;;2.10;;
77701;SDS011;66868;42.708;23.404;2023-03-01T00:22:04;2.55;;;2.45;;
77701;SDS011;66868;42.708;23.404;2023-03-01T00:24:30;2.30;;;2.20;;
77701;SDS011;66868;42.708;23.404;2023-03-01T00:26:55;3.13;;;2.35;;
77701;SDS011;66868;42.708;23.404;2023-03-01T00:29:22;2.50;;;2.40;;
77701;SDS011;66868;42.708;23.404;2023-03-01T00:31:48;2.20;;;2.10;;
77701;SDS011;66868;42.708;23.404;2023-03-01T00:34:14;2.40;;;2.30;;
77701;SDS011;66868;42.708;23.404;2023-03-01T00:36:39;2.65;;;2.53;;
77701;SDS011;66868;42.708;23.404;2023-03-01T00:39:05;2.38;;;2.28;;
77701;SDS011;66868;42.708;23.404;2023-03-01T00:41:35;2.38;;;2.28;;
77701;SDS011;66868;42.708;23.404;2023-03-01T00:44:01;2.28;;;2.17;;
77701;SDS011;66868;42.708;23.404;2023-03-01T00:46:27;2.30;;;2.20;;
77701;SDS011;66868;42.708;23.404;2023-03-01T00:48:53;2.22;;;2.05;;
77701;SDS011;66868;42.708;23.404;2023-03-01T00:51:20;2.30;;;2.10;;
77701;SDS011;66868;42.708;23.404;2023-03-01T00:53:49;1.90;;;1.80;;
77701;SDS011;66868;42.708;23.404;2023-03-01T00:56:16;2.10;;;2.00;;
77701;SDS011;66868;42.708;23.404;2023-03-01T00:58:41;2.10;;;2.00;;
77701;SDS011;66868;42.708;23.404;2023-03-01T01:01:08;2.13;;;2.03;;
77701;SDS011;66868;42.708;23.404;2023-03-01T01:03:45;3.22;;;2.92;;
77701;SDS011;66868;42.708;23.404;2023-03-01T01:06:21;2.67;;;2.47;;
77701;SDS011;66868;42.708;23.404;2023-03-01T01:08:49;2.00;;;1.90;;
77701;SDS011;66868;42.708;23.404;2023-03-01T01:11:16;2.63;;;2.53;;
77701;SDS011;66868;42.708;23.404;2023-03-01T01:13:43;2.30;;;2.20;;
77701;SDS011;66868;42.708;23.404;2023-03-01T01:16:10;2.17;;;1.92;;
77701;SDS011;66868;42.708;23.404;2023-03-01T01:18:35;1.55;;;1.55;;
77701;SDS011;66868;42.708;23.404;2023-03-01T01:21:08;1.65;;;1.65;;
77701;SDS011;66868;42.708;23.404;2023-03-01T01:23:36;1.80;;;1.75;;
77701;SDS011;66868;42.708;23.404;2023-03-01T01:26:03;1.75;;;1.75;;
77701;SDS011;66868;42.708;23.404;2023-03-01T01:28:33;1.60;;;1.60;;
77701;SDS011;66868;42.708;23.404;2023-03-01T01:30:58;1.67;;;1.67;;
77701;SDS011;66868;42.708;23.404;2023-03-01T01:33:24;1.48;;;1.48;;
77701;SDS011;66868;42.708;23.404;2023-03-01T01:35:49;1.80;;;1.73;;
77701;SDS011;66868;42.708;23.404;2023-03-01T01:38:15;1.70;;;1.70;;
77701;SDS011;66868;42.708;23.404;2023-03-01T01:40:44;1.85;;;1.75;;
77701;SDS011;66868;42.708;23.404;2023-03-01T01:43:24;2.28;;;2.17;;
77701;SDS011;66868;42.708;23.404;2023-03-01T01:46:04;1.85;;;1.85;;
77701;SDS011;66868;42.708;23.404;2023-03-01T01:48:48;1.77;;;1.77;;
77701;SDS011;66868;42.708;23.404;2023-03-01T01:51:25;1.90;;;1.80;;
77701;SDS011;66868;42.708;23.404;2023-03-01T01:53:57;2.10;;;2.00;;
77701;SDS011;66868;42.708;23.404;2023-03-01T01:56:26;2.10;;;2.00;;
77701;SDS011;66868;42.708;23.404;2023-03-01T01:58:52;1.58;;;1.58;;
77701;SDS011;66868;42.708;23.404;2023-03-01T02:01:19;1.80;;;1.80;;
77701;SDS011;66868;42.708;23.404;2023-03-01T02:03:44;1.67;;;1.55;;
77701;SDS011;66868;42.708;23.404;2023-03-01T02:06:19;1.52;;;1.52;;
77701;SDS011;66868;42.708;23.404;2023-03-01T02:08:46;1.30;;;1.30;;
77701;SDS011;66868;42.708;23.404;2023-03-01T02:11:14;1.90;;;1.90;;
77701;SDS011;66868;42.708;23.404;2023-03-01T02:13:40;2.42;;;2.33;;
77701;SDS011;66868;42.708;23.404;2023-03-01T02:16:10;2.10;;;2.10;;
77701;SDS011;66868;42.708;23.404;2023-03-01T02:18:38;2.22;;;2.13;;
77701;SDS011;66868;42.708;23.404;2023-03-01T02:23:56;3.35;;;3.10;;
77701;SDS011;66868;42.708;23.404;2023-03-01T02:26:30;2.50;;;2.40;;
77701;SDS011;66868;42.708;23.404;2023-03-01T02:29:06;2.15;;;2.05;;
77701;SDS011;66868;42.708;23.404;2023-03-01T02:31:32;2.00;;;1.90;;
77701;SDS011;66868;42.708;23.404;2023-03-01T02:34:08;1.55;;;1.45;;
77701;SDS011;66868;42.708;23.404;2023-03-01T02:36:40;1.50;;;1.50;;
77701;SDS011;66868;42.708;23.404;2023-03-01T02:39:11;2.00;;;1.90;;
77701;SDS011;66868;42.708;23.404;2023-03-01T02:41:44;1.63;;;1.63;;
77701;SDS011;66868;42.708;23.404;2023-03-01T02:44:13;1.75;;;1.70;;
77701;SDS011;66868;42.708;23.404;2023-03-01T02:46:49;1.73;;;1.73;;
77701;SDS011;66868;42.708;23.404;2023-03-01T02:49:24;1.50;;;1.50;;
77701;SDS011;66868;42.708;23.404;2023-03-01T02:51:56;1.70;;;1.70;;
77701;SDS011;66868;42.708;23.404;2023-03-01T02:54:39;1.63;;;1.63;;
77701;SDS011;66868;42.708;23.404;2023-03-01T02:57:09;1.75;;;1.75;;
77701;SDS011;66868;42.708;23.404;2023-03-01T02:59:35;1.63;;;1.63;;
77701;SDS011;66868;42.708;23.404;2023-03-01T03:02:06;2.47;;;2.38;;
77701;SDS011;66868;42.708;23.404;2023-03-01T03:04:32;3.97;;;3.78;;
77701;SDS011;66868;42.708;23.404;2023-03-01T03:06:57;4.47;;;4.18;;
77701;SDS011;66868;42.708;23.404;2023-03-01T03:09:23;2.75;;;2.65;;
77701;SDS011;66868;42.708;23.404;2023-03-01T03:11:48;2.60;;;2.40;;
77701;SDS011;66868;42.708;23.404;2023-03-01T03:14:15;1.92;;;1.83;;
77701;SDS011;66868;42.708;23.404;2023-03-01T03:16:46;3.00;;;1.60;;
77701;SDS011;66868;42.708;23.404;2023-03-01T03:19:13;1.85;;;1.77;;
77701;SDS011;66868;42.708;23.404;2023-03-01T03:21:39;1.48;;;1.48;;
77701;SDS011;66868;42.708;23.404;2023-03-01T03:24:04;2.33;;;1.95;;
77701;SDS011;66868;42.708;23.404;2023-03-01T03:26:30;1.90;;;1.80;;
77701;SDS011;66868;42.708;23.404;2023-03-01T03:28:56;2.42;;;1.80;;
77701;SDS011;66868;42.708;23.404;2023-03-01T03:31:22;1.85;;;1.73;;
77701;SDS011;66868;42.708;23.404;2023-03-01T03:33:47;1.60;;;1.60;;
77701;SDS011;66868;42.708;23.404;2023-03-01T03:36:16;2.00;;;1.90;;
77701;SDS011;66868;42.708;23.404;2023-03-01T03:38:44;2.40;;;1.48;;
77701;SDS011;66868;42.708;23.404;2023-03-01T03:41:10;1.63;;;1.60;;
77701;SDS011;66868;42.708;23.404;2023-03-01T03:46:39;1.85;;;1.60;;
77701;SDS011;66868;42.708;23.404;2023-03-01T03:49:04;1.33;;;1.33;;
77701;SDS011;66868;42.708;23.404;2023-03-01T03:51:30;3.13;;;1.73;;
77701;SDS011;66868;42.708;23.404;2023-03-01T03:53:55;1.88;;;1.77;;
77701;SDS011;66868;42.708;23.404;2023-03-01T03:56:20;1.27;;;1.27;;
77701;SDS011;66868;42.708;23.404;2023-03-01T04:01:49;1.75;;;1.65;;
77701;SDS011;66868;42.708;23.404;2023-03-01T04:04:32;1.35;;;1.33;;
77701;SDS011;66868;42.708;23.404;2023-03-01T04:06:58;1.67;;;1.65;;
77701;SDS011;66868;42.708;23.404;2023-03-01T04:09:23;1.95;;;1.58;;
77701;SDS011;66868;42.708;23.404;2023-03-01T04:11:48;1.52;;;1.52;;
77701;SDS011;66868;42.708;23.404;2023-03-01T04:14:14;2.35;;;1.98;;
77701;SDS011;66868;42.708;23.404;2023-03-01T04:16:39;3.10;;;2.90;;
77701;SDS011;66868;42.708;23.404;2023-03-01T04:19:05;1.58;;;1.58;;
77701;SDS011;66868;42.708;23.404;2023-03-01T04:21:31;1.65;;;1.58;;
77701;SDS011;66868;42.708;23.404;2023-03-01T04:23:56;2.22;;;1.08;;
77701;SDS011;66868;42.708;23.404;2023-03-01T04:26:22;1.67;;;1.58;;
77701;SDS011;66868;42.708;23.404;2023-03-01T04:28:47;1.40;;;1.40;;
77701;SDS011;66868;42.708;23.404;2023-03-01T04:31:16;1.45;;;1.45;;
77701;SDS011;66868;42.708;23.404;2023-03-01T04:33:47;1.23;;;1.23;;
77701;SDS011;66868;42.708;23.404;2023-03-01T04:36:18;2.10;;;1.40;;
77701;SDS011;66868;42.708;23.404;2023-03-01T04:38:45;1.40;;;1.40;;
77701;SDS011;66868;42.708;23.404;2023-03-01T04:41:14;1.77;;;1.67;;
77701;SDS011;66868;42.708;23.404;2023-03-01T04:43:42;1.67;;;1.48;;
77701;SDS011;66868;42.708;23.404;2023-03-01T04:46:08;1.50;;;1.50;;
77701;SDS011;66868;42.708;23.404;2023-03-01T04:48:37;1.60;;;1.50;;
77701;SDS011;66868;42.708;23.404;2023-03-01T04:51:03;3.35;;;2.50;;
77701;SDS011;66868;42.708;23.404;2023-03-01T04:53:30;3.70;;;2.90;;
77701;SDS011;66868;42.708;23.404;2023-03-01T04:55:57;3.55;;;3.30;;
77701;SDS011;66868;42.708;23.404;2023-03-01T04:58:23;4.90;;;4.47;;
77701;SDS011;66868;42.708;23.404;2023-03-01T05:00:50;6.80;;;5.95;;
77701;SDS011;66868;42.708;23.404;2023-03-01T05:03:16;10.20;;;6.32;;
77701;SDS011;66868;42.708;23.404;2023-03-01T05:05:45;11.63;;;6.22;;
77701;SDS011;66868;42.708;23.404;2023-03-01T05:08:12;9.45;;;7.32;;
77701;SDS011;66868;42.708;23.404;2023-03-01T05:10:42;8.93;;;7.88;;
77701;SDS011;66868;42.708;23.404;2023-03-01T05:13:11;8.25;;;7.13;;
77701;SDS011;66868;42.708;23.404;2023-03-01T05:15:38;7.78;;;6.00;;
77701;SDS011;66868;42.708;23.404;2023-03-01T05:18:04;6.45;;;5.72;;
77701;SDS011;66868;42.708;23.404;2023-03-01T05:20:36;5.82;;;5.30;;
77701;SDS011;66868;42.708;23.404;2023-03-01T05:23:03;3.67;;;3.33;;
77701;SDS011;66868;42.708;23.404;2023-03-01T05:25:30;2.85;;;2.75;;
77701;SDS011;66868;42.708;23.404;2023-03-01T05:27:58;3.08;;;2.88;;
77701;SDS011;66868;42.708;23.404;2023-03-01T05:30:28;2.35;;;2.25;;
77701;SDS011;66868;42.708;23.404;2023-03-01T05:32:53;2.28;;;2.17;;
77701;SDS011;66868;42.708;23.404;2023-03-01T05:35:20;2.60;;;2.47;;
77701;SDS011;66868;42.708;23.404;2023-03-01T05:37:47;1.60;;;1.55;;
77701;SDS011;66868;42.708;23.404;2023-03-01T05:40:23;4.77;;;2.30;;
77701;SDS011;66868;42.708;23.404;2023-03-01T05:45:19;1.98;;;1.88;;
77701;SDS011;66868;42.708;23.404;2023-03-01T05:47:46;2.00;;;1.90;;
77701;SDS011;66868;42.708;23.404;2023-03-01T05:50:13;4.65;;;2.13;;
77701;SDS011;66868;42.708;23.404;2023-03-01T05:52:44;2.70;;;2.10;;
77701;SDS011;66868;42.708;23.404;2023-03-01T05:55:15;4.20;;;2.35;;
77701;SDS011;66868;42.708;23.404;2023-03-01T05:57:45;2.47;;;2.38;;
77701;SDS011;66868;42.708;23.404;2023-03-01T06:00:11;2.33;;;2.22;;
77701;SDS011;66868;42.708;23.404;2023-03-01T06:02:38;2.45;;;2.35;;
77701;SDS011;66868;42.708;23.404;2023-03-01T06:05:07;2.42;;;1.98;;
77701;SDS011;66868;42.708;23.404;2023-03-01T06:07:34;5.57;;;2.88;;
77701;SDS011;66868;42.708;23.404;2023-03-01T06:10:00;1.92;;;1.83;;
77701;SDS011;66868;42.708;23.404;2023-03-01T06:12:25;1.98;;;1.88;;
77701;SDS011;66868;42.708;23.404;2023-03-01T06:14:51;1.52;;;1.52;;
77701;SDS011;66868;42.708;23.404;2023-03-01T06:17:16;1.75;;;1.50;;
77701;SDS011;66868;42.708;23.404;2023-03-01T06:19:41;2.30;;;2.20;;
77701;SDS011;66868;42.708;23.404;2023-03-01T06:22:07;1.55;;;1.55;;
77701;SDS011;66868;42.708;23.404;2023-03-01T06:24:33;2.67;;;1.77;;
77701;SDS011;66868;42.708;23.404;2023-03-01T06:26:58;3.65;;;1.90;;
77701;SDS011;66868;42.708;23.404;2023-03-01T06:29:24;3.10;;;2.47;;
77701;SDS011;66868;42.708;23.404;2023-03-01T06:31:49;3.30;;;2.15;;
77701;SDS011;66868;42.708;23.404;2023-03-01T06:34:15;5.88;;;1.77;;
77701;SDS011;66868;42.708;23.404;2023-03-01T06:36:40;2.10;;;2.00;;
77701;SDS011;66868;42.708;23.404;2023-03-01T06:39:06;2.10;;;2.00;;
77701;SDS011;66868;42.708;23.404;2023-03-01T06:41:31;2.15;;;2.05;;
77701;SDS011;66868;42.708;23.404;2023-03-01T06:44:04;5.93;;;2.90;;
77701;SDS011;66868;42.708;23.404;2023-03-01T06:46:32;2.65;;;2.55;;
77701;SDS011;66868;42.708;23.404;2023-03-01T06:48:58;2.47;;;2.38;;
77701;SDS011;66868;42.708;23.404;2023-03-01T06:51:23;2.90;;;2.33;;
77701;SDS011;66868;42.708;23.404;2023-03-01T06:53:48;3.67;;;2.53;;
77701;SDS011;66868;42.708;23.404;2023-03-01T06:56:14;1.83;;;1.50;;
77701;SDS011;66868;42.708;23.404;2023-03-01T06:58:39;1.90;;;1.80;;
77701;SDS011;66868;42.708;23.404;2023-03-01T07:01:06;3.88;;;2.40;;
77701;SDS011;66868;42.708;23.404;2023-03-01T07:03:32;2.70;;;1.65;;
77701;SDS011;66868;42.708;23.404;2023-03-01T07:05:57;6.22;;;2.15;;
77701;SDS011;66868;42.708;23.404;2023-03-01T07:08:22;2.75;;;2.55;;
77701;SDS011;66868;42.708;23.404;2023-03-01T07:10:48;3.45;;;1.80;;
77701;SDS011;66868;42.708;23.404;2023-03-01T07:13:14;2.28;;;1.95;;
77701;SDS011;66868;42.708;23.404;2023-03-01T07:15:39;2.00;;;1.80;;
77701;SDS011;66868;42.708;23.404;2023-03-01T07:18:05;2.33;;;2.03;;
77701;SDS011;66868;42.708;23.404;2023-03-01T07:20:30;5.82;;;2.35;;
77701;SDS011;66868;42.708;23.404;2023-03-01T07:22:56;3.45;;;2.70;;
77701;SDS011;66868;42.708;23.404;2023-03-01T07:25:26;3.28;;;2.95;;
77701;SDS011;66868;42.708;23.404;2023-03-01T07:27:52;6.13;;;2.47;;
77701;SDS011;66868;42.708;23.404;2023-03-01T07:30:19;2.22;;;2.08;;
77701;SDS011;66868;42.708;23.404;2023-03-01T07:32:45;3.70;;;1.80;;
77701;SDS011;66868;42.708;23.404;2023-03-01T07:35:11;4.50;;;1.95;;
77701;SDS011;66868;42.708;23.404;2023-03-01T07:37:36;3.40;;;2.45;;
77701;SDS011;66868;42.708;23.404;2023-03-01T07:40:03;2.88;;;2.10;;
77701;SDS011;66868;42.708;23.404;2023-03-01T07:42:29;9.88;;;2.75;;
77701;SDS011;66868;42.708;23.404;2023-03-01T07:44:54;4.57;;;1.70;;
77701;SDS011;66868;42.708;23.404;2023-03-01T07:47:19;4.10;;;1.80;;
77701;SDS011;66868;42.708;23.404;2023-03-01T07:49:45;1.13;;;1.13;;
77701;SDS011;66868;42.708;23.404;2023-03-01T07:52:10;2.05;;;1.95;;
77701;SDS011;66868;42.708;23.404;2023-03-01T07:54:37;7.57;;;1.95;;
77701;SDS011;66868;42.708;23.404;2023-03-01T07:57:02;2.33;;;1.60;;
77701;SDS011;66868;42.708;23.404;2023-03-01T07:59:33;4.68;;;1.35;;
77701;SDS011;66868;42.708;23.404;2023-03-01T08:01:59;2.55;;;1.55;;
77701;SDS011;66868;42.708;23.404;2023-03-01T08:04:24;1.70;;;1.60;;
77701;SDS011;66868;42.708;23.404;2023-03-01T08:06:51;2.20;;;2.10;;
77701;SDS011;66868;42.708;23.404;2023-03-01T08:09:17;2.03;;;1.92;;
77701;SDS011;66868;42.708;23.404;2023-03-01T08:11:42;1.77;;;1.65;;
77701;SDS011;66868;42.708;23.404;2023-03-01T08:14:19;2.92;;;1.63;;
77701;SDS011;66868;42.708;23.404;2023-03-01T08:16:48;2.10;;;2.00;;
77701;SDS011;66868;42.708;23.404;2023-03-01T08:19:14;2.83;;;2.17;;
77701;SDS011;66868;42.708;23.404;2023-03-01T08:21:40;2.75;;;1.45;;
77701;SDS011;66868;42.708;23.404;2023-03-01T08:24:05;6.22;;;1.90;;
77701;SDS011;66868;42.708;23.404;2023-03-01T08:26:35;1.65;;;1.55;;
77701;SDS011;66868;42.708;23.404;2023-03-01T08:29:01;1.02;;;1.02;;
77701;SDS011;66868;42.708;23.404;2023-03-01T08:37:07;3.15;;;2.28;;
77701;SDS011;66868;42.708;23.404;2023-03-01T08:39:32;4.10;;;2.30;;
77701;SDS011;66868;42.708;23.404;2023-03-01T08:41:58;3.45;;;1.83;;
77701;SDS011;66868;42.708;23.404;2023-03-01T08:44:23;2.17;;;2.08;;
77701;SDS011;66868;42.708;23.404;2023-03-01T08:46:49;2.55;;;2.40;;
77701;SDS011;66868;42.708;23.404;2023-03-01T08:49:17;2.60;;;2.40;;
77701;SDS011;66868;42.708;23.404;2023-03-01T08:51:44;1.98;;;1.88;;
77701;SDS011;66868;42.708;23.404;2023-03-01T08:54:11;2.60;;;2.38;;
77701;SDS011;66868;42.708;23.404;2023-03-01T08:56:41;1.67;;;1.67;;
77701;SDS011;66868;42.708;23.404;2023-03-01T08:59:07;3.78;;;2.17;;
77701;SDS011;66868;42.708;23.404;2023-03-01T09:01:33;1.88;;;1.77;;
77701;SDS011;66868;42.708;23.404;2023-03-01T09:03:58;1.65;;;1.65;;
77701;SDS011;66868;42.708;23.404;2023-03-01T09:06:24;1.52;;;1.52;;
77701;SDS011;66868;42.708;23.404;2023-03-01T09:08:50;1.80;;;1.70;;
77701;SDS011;66868;42.708;23.404;2023-03-01T09:11:17;2.38;;;1.60;;
77701;SDS011;66868;42.708;23.404;2023-03-01T09:13:45;2.30;;;2.20;;
77701;SDS011;66868;42.708;23.404;2023-03-01T09:16:12;3.28;;;2.40;;
77701;SDS011;66868;42.708;23.404;2023-03-01T09:18:39;2.30;;;2.20;;
77701;SDS011;66868;42.708;23.404;2023-03-01T09:21:09;2.20;;;2.10;;
77701;SDS011;66868;42.708;23.404;2023-03-01T09:23:40;2.08;;;1.98;;
77701;SDS011;66868;42.708;23.404;2023-03-01T09:26:11;2.00;;;1.90;;
77701;SDS011;66868;42.708;23.404;2023-03-01T09:28:38;3.05;;;2.85;;
77701;SDS011;66868;42.708;23.404;2023-03-01T09:31:05;2.42;;;2.33;;
77701;SDS011;66868;42.708;23.404;2023-03-01T09:33:31;1.83;;;1.73;;
77701;SDS011;66868;42.708;23.404;2023-03-01T09:36:02;1.35;;;1.35;;
77701;SDS011;66868;42.708;23.404;2023-03-01T09:38:29;1.58;;;1.58;;
77701;SDS011;66868;42.708;23.404;2023-03-01T09:40:55;1.75;;;1.65;;
77701;SDS011;66868;42.708;23.404;2023-03-01T09:46:05;1.42;;;1.38;;
77701;SDS011;66868;42.708;23.404;2023-03-01T09:48:41;5.30;;;1.55;;
77701;SDS011;66868;42.708;23.404;2023-03-01T09:51:12;2.70;;;1.33;;
77701;SDS011;66868;42.708;23.404;2023-03-01T09:53:43;17.65;;;10.73;;
77701;SDS011;66868;42.708;23.404;2023-03-01T10:01:56;1.35;;;1.30;;
77701;SDS011;66868;42.708;23.404;2023-03-01T10:04:48;1.35;;;1.15;;
77701;SDS011;66868;42.708;23.404;2023-03-01T10:09:52;1.40;;;1.30;;
77701;SDS011;66868;42.708;23.404;2023-03-01T10:12:18;0.82;;;0.82;;
77701;SDS011;66868;42.708;23.404;2023-03-01T10:17:51;0.90;;;0.90;;
77701;SDS011;66868;42.708;23.404;2023-03-01T10:22:51;0.82;;;0.82;;
77701;SDS011;66868;42.708;23.404;2023-03-01T10:30:53;3.03;;;0.98;;
77701;SDS011;66868;42.708;23.404;2023-03-01T10:33:23;3.40;;;1.02;;
77701;SDS011;66868;42.708;23.404;2023-03-01T10:35:54;0.90;;;0.90;;
77701;SDS011;66868;42.708;23.404;2023-03-01T10:38:20;1.70;;;1.35;;
77701;SDS011;66868;42.708;23.404;2023-03-01T10:41:05;1.98;;;1.02;;
77701;SDS011;66868;42.708;23.404;2023-03-01T10:43:51;0.93;;;0.90;;
77701;SDS011;66868;42.708;23.404;2023-03-01T10:46:26;0.90;;;0.90;;
77701;SDS011;66868;42.708;23.404;2023-03-01T10:51:46;3.50;;;1.75;;
77701;SDS011;66868;42.708;23.404;2023-03-01T10:54:20;2.15;;;2.00;;
77701;SDS011;66868;42.708;23.404;2023-03-01T10:56:49;1.88;;;1.77;;
77701;SDS011;66868;42.708;23.404;2023-03-01T11:02:28;3.13;;;1.83;;
77701;SDS011;66868;42.708;23.404;2023-03-01T11:05:02;1.63;;;1.52;;
77701;SDS011;66868;42.708;23.404;2023-03-01T11:10:19;1.48;;;1.38;;
77701;SDS011;66868;42.708;23.404;2023-03-01T11:12:46;1.30;;;1.20;;
77701;SDS011;66868;42.708;23.404;2023-03-01T11:15:23;4.28;;;1.50;;
77701;SDS011;66868;42.708;23.404;2023-03-01T11:17:53;2.10;;;1.90;;
77701;SDS011;66868;42.708;23.404;2023-03-01T11:20:31;3.58;;;1.60;;
77701;SDS011;66868;42.708;23.404;2023-03-01T11:23:01;5.63;;;1.05;;
77701;SDS011;66868;42.708;23.404;2023-03-01T11:25:33;2.33;;;1.25;;
77701;SDS011;66868;42.708;23.404;2023-03-01T11:28:03;2.40;;;2.30;;
77701;SDS011;66868;42.708;23.404;2023-03-01T11:35:55;22.17;;;11.48;;
77701;SDS011;66868;42.708;23.404;2023-03-01T11:38:25;8.50;;;6.88;;
77701;SDS011;66868;42.708;23.404;2023-03-01T11:43:59;1.20;;;1.13;;
77701;SDS011;66868;42.708;23.404;2023-03-01T11:51:51;4.05;;;1.55;;
77701;SDS011;66868;42.708;23.404;2023-03-01T12:08:17;3.22;;;1.05;;
77701;SDS011;66868;42.708;23.404;2023-03-01T12:16:23;2.03;;;1.15;;
77701;SDS011;66868;42.708;23.404;2023-03-01T12:30:01;2.33;;;0.98;;
77701;SDS011;66868;42.708;23.404;2023-03-01T12:38:47;6.20;;;2.90;;
77701;SDS011;66868;42.708;23.404;2023-03-01T12:49:54;1.92;;;1.83;;
77701;SDS011;66868;42.708;23.404;2023-03-01T12:55:29;2.40;;;2.30;;
77701;SDS011;66868;42.708;23.404;2023-03-01T13:00:41;2.70;;;2.50;;
77701;SDS011;66868;42.708;23.404;2023-03-01T13:06:11;2.42;;;2.03;;
77701;SDS011;66868;42.708;23.404;2023-03-01T13:11:52;2.25;;;1.98;;
77701;SDS011;66868;42.708;23.404;2023-03-01T13:16:47;1.58;;;1.58;;
77701;SDS011;66868;42.708;23.404;2023-03-01T13:19:27;2.05;;;1.70;;
77701;SDS011;66868;42.708;23.404;2023-03-01T13:22:24;2.75;;;1.60;;
77701;SDS011;66868;42.708;23.404;2023-03-01T13:25:00;2.53;;;1.88;;
77701;SDS011;66868;42.708;23.404;2023-03-01T13:27:36;2.28;;;1.73;;
77701;SDS011;66868;42.708;23.404;2023-03-01T13:30:01;1.92;;;1.77;;
77701;SDS011;66868;42.708;23.404;2023-03-01T13:32:47;2.22;;;2.13;;
77701;SDS011;66868;42.708;23.404;2023-03-01T13:37:41;6.10;;;1.80;;
77701;SDS011;66868;42.708;23.404;2023-03-01T13:42:44;2.55;;;2.10;;
77701;SDS011;66868;42.708;23.404;2023-03-01T13:45:20;2.22;;;2.03;;
77701;SDS011;66868;42.708;23.404;2023-03-01T13:47:52;1.65;;;1.63;;
77701;SDS011;66868;42.708;23.404;2023-03-01T13:50:23;2.00;;;1.90;;
77701;SDS011;66868;42.708;23.404;2023-03-01T13:52:52;2.42;;;2.15;;
77701;SDS011;66868;42.708;23.404;2023-03-01T13:58:04;3.05;;;2.75;;
77701;SDS011;66868;42.708;23.404;2023-03-01T14:00:40;3.20;;;1.55;;
77701;SDS011;66868;42.708;23.404;2023-03-01T14:03:10;3.58;;;2.63;;
77701;SDS011;66868;42.708;23.404;2023-03-01T14:08:23;2.30;;;2.03;;
77701;SDS011;66868;42.708;23.404;2023-03-01T14:11:04;2.47;;;2.28;;
77701;SDS011;66868;42.708;23.404;2023-03-01T14:13:51;3.17;;;2.38;;
77701;SDS011;66868;42.708;23.404;2023-03-01T14:19:26;2.28;;;2.08;;
77701;SDS011;66868;42.708;23.404;2023-03-01T14:22:11;2.13;;;1.90;;
77701;SDS011;66868;42.708;23.404;2023-03-01T14:25:06;1.65;;;1.63;;
77701;SDS011;66868;42.708;23.404;2023-03-01T14:27:44;3.38;;;1.92;;
77701;SDS011;66868;42.708;23.404;2023-03-01T14:30:13;6.03;;;2.00;;
77701;SDS011;66868;42.708;23.404;2023-03-01T14:32:43;3.08;;;1.65;;
77701;SDS011;66868;42.708;23.404;2023-03-01T14:35:19;3.65;;;2.05;;
77701;SDS011;66868;42.708;23.404;2023-03-01T14:37:53;5.18;;;1.92;;
77701;SDS011;66868;42.708;23.404;2023-03-01T14:40:26;1.67;;;1.60;;
77701;SDS011;66868;42.708;23.404;2023-03-01T14:42:55;2.00;;;1.90;;
77701;SDS011;66868;42.708;23.404;2023-03-01T14:45:25;2.00;;;1.88;;
77701;SDS011;66868;42.708;23.404;2023-03-01T14:47:53;2.20;;;2.10;;
77701;SDS011;66868;42.708;23.404;2023-03-01T14:50:27;2.45;;;1.95;;
77701;SDS011;66868;42.708;23.404;2023-03-01T14:52:58;4.80;;;2.35;;
77701;SDS011;66868;42.708;23.404;2023-03-01T14:55:29;5.18;;;2.40;;
77701;SDS011;66868;42.708;23.404;2023-03-01T14:57:58;2.58;;;2.10;;
77701;SDS011;66868;42.708;23.404;2023-03-01T15:00:24;3.75;;;2.13;;
77701;SDS011;66868;42.708;23.404;2023-03-01T15:02:54;3.92;;;2.72;;
77701;SDS011;66868;42.708;23.404;2023-03-01T15:05:27;3.15;;;2.33;;
77701;SDS011;66868;42.708;23.404;2023-03-01T15:07:56;2.95;;;2.75;;
77701;SDS011;66868;42.708;23.404;2023-03-01T15:10:25;3.67;;;2.47;;
77701;SDS011;66868;42.708;23.404;2023-03-01T15:12:52;6.47;;;2.45;;
77701;SDS011;66868;42.708;23.404;2023-03-01T15:17:50;3.03;;;2.03;;
77701;SDS011;66868;42.708;23.404;2023-03-01T15:20:20;6.15;;;2.55;;
77701;SDS011;66868;42.708;23.404;2023-03-01T15:22:50;2.35;;;2.17;;
77701;SDS011;66868;42.708;23.404;2023-03-01T15:25:18;5.63;;;2.10;;
77701;SDS011;66868;42.708;23.404;2023-03-01T15:27:45;4.97;;;2.40;;
77701;SDS011;66868;42.708;23.404;2023-03-01T15:30:22;3.15;;;2.88;;
77701;SDS011;66868;42.708;23.404;2023-03-01T15:36:29;3.88;;;3.58;;
77701;SDS011;66868;42.708;23.404;2023-03-01T15:38:55;3.17;;;2.92;;
77701;SDS011;66868;42.708;23.404;2023-03-01T15:41:33;5.57;;;2.92;;
77701;SDS011;66868;42.708;23.404;2023-03-01T15:46:51;3.20;;;2.92;;
77701;SDS011;66868;42.708;23.404;2023-03-01T15:51:57;3.83;;;3.50;;
77701;SDS011;66868;42.708;23.404;2023-03-01T15:54:23;8.65;;;5.88;;
77701;SDS011;66868;42.708;23.404;2023-03-01T15:56:51;5.40;;;3.00;;
77701;SDS011;66868;42.708;23.404;2023-03-01T15:59:17;3.13;;;2.88;;
77701;SDS011;66868;42.708;23.404;2023-03-01T16:01:44;4.75;;;3.47;;
77701;SDS011;66868;42.708;23.404;2023-03-01T16:04:13;5.32;;;4.32;;
77701;SDS011;66868;42.708;23.404;2023-03-01T16:07:03;5.07;;;3.75;;
77701;SDS011;66868;42.708;23.404;2023-03-01T16:09:28;3.38;;;2.97;;
77701;SDS011;66868;42.708;23.404;2023-03-01T16:11:54;3.78;;;3.47;;
77701;SDS011;66868;42.708;23.404;2023-03-01T16:14:22;3.45;;;3.15;;
77701;SDS011;66868;42.708;23.404;2023-03-01T16:16:48;3.75;;;2.90;;
77701;SDS011;66868;42.708;23.404;2023-03-01T16:19:14;2.67;;;2.58;;
77701;SDS011;66868;42.708;23.404;2023-03-01T16:21:40;5.00;;;3.25;;
77701;SDS011;66868;42.708;23.404;2023-03-01T16:24:07;5.78;;;2.92;;
77701;SDS011;66868;42.708;23.404;2023-03-01T16:26:33;3.30;;;3.05;;
77701;SDS011;66868;42.708;23.404;2023-03-01T16:28:59;3.50;;;2.55;;
77701;SDS011;66868;42.708;23.404;2023-03-01T16:31:24;4.97;;;2.58;;
77701;SDS011;66868;42.708;23.404;2023-03-01T16:33:55;2.85;;;2.65;;
77701;SDS011;66868;42.708;23.404;2023-03-01T16:36:22;3.60;;;3.08;;
77701;SDS011;66868;42.708;23.404;2023-03-01T16:38:49;7.10;;;2.88;;
77701;SDS011;66868;42.708;23.404;2023-03-01T16:41:19;7.18;;;3.42;;
77701;SDS011;66868;42.708;23.404;2023-03-01T16:43:46;4.18;;;3.88;;
77701;SDS011;66868;42.708;23.404;2023-03-01T16:46:12;17.25;;;6.45;;
77701;SDS011;66868;42.708;23.404;2023-03-01T16:48:40;24.55;;;10.73;;
77701;SDS011;66868;42.708;23.404;2023-03-01T16:51:06;48.70;;;18.52;;
77701;SDS011;66868;42.708;23.404;2023-03-01T16:53:32;49.85;;;17.80;;
77701;SDS011;66868;42.708;23.404;2023-03-01T16:56:01;45.45;;;15.52;;
77701;SDS011;66868;42.708;23.404;2023-03-01T16:58:28;24.17;;;11.18;;
77701;SDS011;66868;42.708;23.404;2023-03-01T17:00:54;17.05;;;9.60;;
77701;SDS011;66868;42.708;23.404;2023-03-01T17:03:21;12.38;;;7.38;;
77701;SDS011;66868;42.708;23.404;2023-03-01T17:05:51;7.47;;;6.45;;
77701;SDS011;66868;42.708;23.404;2023-03-01T17:08:16;20.05;;;10.90;;